Home > Products > Valid Products > MTR

000
SAUS45 KGGW 261449
MTRJDN
METAR KJDN 261448Z AUTO 32010KT 14/09 A2987 RMK AO1 SLP114 T01440089
50002





000
SAUS45 KGGW 261249
MTRJDN
METAR KJDN 261248Z AUTO 27006KT 09/08 A2987 RMK AO1 SLP115 T00940078





000
SAUS45 KGGW 261049
MTRJDN
METAR KJDN 261048Z AUTO 26009KT 10/07 A2985 RMK AO1 SLP108 T01000072





000
SAUS45 KGGW 260849
MTRJDN
METAR KJDN 260848Z AUTO 27006KT 10/07 A2986 RMK AO1 SLP108 T01000072
56001





000
SAUS45 KGGW 260049
MTRJDN
METAR KJDN 260048Z AUTO VRB03KT 17/06 A2982 RMK AO1 SLP099 T01720061





000
SAUS45 KGGW 251849
MTRJDN
METAR KJDN 251848Z AUTO 34007KT 310V010 19/06 A2985 RMK AO1 SLP110
T01940056





000
SAUS45 KGGW 251749
MTRJDN
METAR KJDN 251748Z AUTO 26007KT 17/05 A2986 RMK AO1 SLP115 T01720050
10183 20078 58005





000
SAUS45 KGGW 251649
MTRJDN
METAR KJDN 251648Z AUTO 29005KT 17/05 A2987 RMK AO1 SLP116 T01720050





000
SAUS45 KGGW 251249
MTRJDN
METAR KJDN 251248Z AUTO 00000KT 09/06 A2989 RMK AO1 SLP122 T00940061





000
SAUS45 KGGW 251049
MTRJDN
METAR KJDN 251048Z AUTO 00000KT 07/06 A2987 RMK AO1 SLP118 T00720061





000
SAUS45 KGGW 250949
MTRJDN
METAR KJDN 250948Z AUTO 30003KT 06/05 A2987 RMK AO1 SLP119 T00610050





000
SAUS45 KGGW 250849
MTRJDN
METAR KJDN 250848Z AUTO 24004KT 06/04 A2987 RMK AO1 SLP119 T00560044
56006





000
SAUS45 KGGW 250649
MTRJDN
METAR KJDN 250648Z AUTO 27003KT 06/04 A2988 RMK AO1 SLP124 T00610044
401830039





000
SAUS45 KGGW 242349
MTRJDN
METAR KJDN 242348Z AUTO 25005KT 18/04 A2986 RMK AO1 SLP118 T01780039
10183 20150 58007





000
SAUS45 KGGW 242049
MTRJDN
METAR KJDN 242048Z AUTO VRB04KT 18/04 A2989 RMK AO1 SLP124 T01780039
50000





000
SAUS45 KGGW 241949
MTRJDN
METAR KJDN 241948Z AUTO 29010KT 17/03 A2989 RMK AO1 SLP127 T01670033





000
SAUS45 KGGW 241849
MTRJDN
METAR KJDN 241848Z AUTO 29013KT 16/03 A2989 RMK AO1 SLP127 T01560033





000
SAUS45 KGGW 241749
MTRJDN
METAR KJDN 241748Z AUTO 24008KT 17/04 A2989 RMK AO1 SLP124 T01670039
10167 20044 53001





000
SAUS45 KGGW 241249
MTRJDN
METAR KJDN 241248Z AUTO 29005KT 07/06 A2987 RMK AO1 SLP122 T00720056





000
SAUS45 KGGW 241149
MTRJDN
METAR KJDN 241148Z AUTO 28006KT 05/04 A2987 RMK AO1 SLP120 T00500039
10078 20039 51010





000
SAUS45 KGGW 240649
MTRJDN
METAR KJDN 240648Z AUTO 28003KT 06/04 A2982 RMK AO1 SLP106 T00610044
401720061





000
SAUS45 KGGW 240550
MTRJDN
METAR KJDN 240548Z AUTO 27005KT 08/05 A2982 RMK AO1 SLP104 T00780050
10167 20067 51016





000
SAUS45 KGGW 240049
MTRJDN
METAR KJDN 240048Z AUTO 28015KT 15/04 A2974 RMK AO1 SLP072 T01500039





000
SAUS45 KGGW 232349
MTRJDN
METAR KJDN 232348Z AUTO 27013G18KT 17/05 A2972 RMK AO1 SLP063
T01670050 10172 20133 50006





000
SAUS45 KGGW 231949
MTRJDN
METAR KJDN 231948Z AUTO 27017G25KT 16/03 A2970 RMK AO1 PK WND
28026/1856 SLP056 T01610028





000
SAUS45 KGGW 231749
MTRJDN
METAR KJDN 231748Z AUTO 27019G30KT 14/04 A2969 RMK AO1 PK WND
28031/1733 SLP058 T01440039 53011





    US Dept of Commerce
    National Oceanic and Atmospheric Administration
    National Weather Service
    1325 East West Highway
    Silver Spring, MD 20910
    Page Author: NWS Internet Services Team
Disclaimer
Information Quality
Credits
Glossary
Privacy Policy
Freedom of Information Act (FOIA)
About Us
Career Opportunities